createdAt,value
2018-01-05T00:00:28.949Z,0.00
2018-01-05T00:01:28.820Z,0.00
2018-01-05T00:02:28.693Z,0.00
2018-01-05T00:03:28.565Z,0.00
2018-01-05T00:04:28.438Z,0.00
2018-01-05T00:05:28.306Z,0.00
2018-01-05T00:06:28.177Z,0.00
2018-01-05T00:07:28.051Z,0.00
2018-01-05T00:08:27.918Z,0.00
2018-01-05T00:09:27.791Z,0.00
2018-01-05T00:10:27.668Z,0.00
2018-01-05T00:11:27.538Z,0.00
2018-01-05T00:12:27.405Z,0.00
2018-01-05T00:13:27.276Z,0.00
2018-01-05T00:14:27.145Z,0.00
2018-01-05T00:15:27.020Z,0.00
2018-01-05T00:16:26.887Z,0.00
2018-01-05T00:17:26.760Z,0.00
2018-01-05T00:18:26.633Z,0.00
2018-01-05T00:19:26.505Z,0.00
2018-01-05T00:20:26.374Z,0.00
2018-01-05T00:21:26.247Z,0.00
2018-01-05T00:22:26.117Z,0.00
2018-01-05T00:23:25.992Z,0.00
2018-01-05T00:24:25.858Z,0.00
2018-01-05T00:25:25.729Z,0.00
2018-01-05T00:26:25.603Z,0.00
2018-01-05T00:27:25.472Z,0.00
2018-01-05T00:28:25.344Z,0.00
2018-01-05T00:29:25.215Z,0.00
2018-01-05T00:30:25.086Z,0.00
2018-01-05T00:31:24.956Z,0.00
2018-01-05T00:32:24.828Z,0.00
2018-01-05T00:33:24.701Z,0.00
2018-01-05T00:34:24.568Z,0.00
2018-01-05T00:35:24.440Z,0.00
2018-01-05T00:36:24.309Z,0.00
2018-01-05T00:37:24.180Z,0.00
2018-01-05T00:38:24.051Z,0.00
2018-01-05T00:39:23.921Z,0.00
2018-01-05T00:40:23.791Z,0.00
2018-01-05T00:41:23.661Z,0.00
2018-01-05T00:42:23.535Z,0.00
2018-01-05T00:43:23.407Z,0.00
2018-01-05T00:44:23.276Z,0.00
2018-01-05T00:45:23.146Z,0.00
2018-01-05T00:46:23.018Z,0.00
2018-01-05T00:47:22.886Z,0.00
2018-01-05T00:48:22.759Z,0.00
2018-01-05T00:49:22.631Z,0.00
2018-01-05T00:50:22.502Z,0.00
2018-01-05T00:51:22.373Z,0.00
2018-01-05T00:52:22.242Z,0.00
2018-01-05T00:53:22.110Z,0.00
2018-01-05T00:54:21.985Z,0.00
2018-01-05T00:55:21.855Z,0.00
2018-01-05T00:56:21.725Z,0.00
2018-01-05T00:57:21.594Z,0.00
2018-01-05T00:58:21.472Z,0.00
2018-01-05T00:59:21.336Z,0.00
2018-01-05T01:00:21.209Z,0.00
2018-01-05T01:01:21.078Z,0.00
2018-01-05T01:02:20.949Z,0.00
2018-01-05T01:03:20.819Z,0.00
2018-01-05T01:04:20.691Z,0.00
2018-01-05T01:05:20.560Z,0.00
2018-01-05T01:06:20.438Z,0.00
2018-01-05T01:07:20.305Z,0.00
2018-01-05T01:08:20.173Z,0.00
2018-01-05T01:09:20.045Z,0.00
2018-01-05T01:10:19.915Z,0.00
2018-01-05T01:11:19.787Z,0.00
2018-01-05T01:12:19.657Z,0.00
2018-01-05T01:13:19.526Z,0.00
2018-01-05T01:14:19.397Z,0.00
2018-01-05T01:15:19.270Z,0.00
2018-01-05T01:16:19.139Z,0.00
2018-01-05T01:17:19.011Z,0.00
2018-01-05T01:18:18.882Z,0.00
2018-01-05T01:19:18.754Z,0.00
2018-01-05T01:20:18.621Z,0.00
2018-01-05T01:21:18.495Z,0.00
2018-01-05T01:22:18.366Z,0.00
2018-01-05T01:23:18.235Z,0.00
2018-01-05T01:24:18.105Z,0.00
2018-01-05T01:25:17.978Z,0.00
2018-01-05T01:26:17.847Z,0.00
2018-01-05T01:27:17.718Z,0.00
2018-01-05T01:28:17.588Z,0.00
2018-01-05T01:29:17.461Z,0.00
2018-01-05T01:30:17.331Z,0.00
2018-01-05T01:31:17.202Z,0.00
2018-01-05T01:32:17.072Z,0.00
2018-01-05T01:33:16.942Z,0.00
2018-01-05T01:34:16.814Z,0.00
2018-01-05T01:35:16.684Z,0.00
2018-01-05T01:36:16.553Z,0.00
2018-01-05T01:37:16.485Z,0.00
2018-01-05T01:38:16.300Z,0.00
2018-01-05T01:39:16.168Z,0.00
2018-01-05T01:40:16.040Z,0.00
2018-01-05T01:41:15.908Z,0.00
2018-01-05T01:42:15.781Z,0.00
2018-01-05T01:43:15.652Z,0.00
2018-01-05T01:44:15.522Z,0.00
2018-01-05T01:45:15.394Z,0.00
2018-01-05T01:46:15.263Z,0.00
2018-01-05T01:47:15.134Z,0.00
2018-01-05T01:48:15.006Z,0.00
2018-01-05T01:49:14.878Z,0.00
2018-01-05T01:50:14.749Z,0.00
2018-01-05T01:51:14.618Z,0.00
2018-01-05T01:52:14.489Z,0.00
2018-01-05T01:53:14.359Z,0.00
2018-01-05T01:54:14.228Z,0.00
2018-01-05T01:55:14.099Z,0.00
2018-01-05T01:56:13.971Z,0.00
2018-01-05T01:57:13.842Z,0.00
2018-01-05T01:58:13.712Z,0.00
2018-01-05T01:59:13.583Z,0.00
2018-01-05T02:00:13.451Z,0.00
2018-01-05T02:01:13.323Z,0.00
2018-01-05T02:02:13.194Z,0.00
2018-01-05T02:03:13.065Z,0.00
2018-01-05T02:04:12.936Z,0.00
2018-01-05T02:05:12.806Z,0.00
2018-01-05T02:06:12.678Z,0.00
2018-01-05T02:07:12.549Z,0.00
2018-01-05T02:08:12.417Z,0.00
2018-01-05T02:09:12.289Z,0.00
2018-01-05T02:10:12.160Z,0.00
2018-01-05T02:11:12.031Z,0.00
2018-01-05T02:12:11.899Z,0.00
2018-01-05T02:13:11.771Z,0.00
2018-01-05T02:14:11.643Z,0.00
2018-01-05T02:15:11.512Z,0.00
2018-01-05T02:16:11.383Z,0.00
2018-01-05T02:17:11.255Z,0.00
2018-01-05T02:18:11.124Z,0.00
2018-01-05T02:19:10.999Z,0.00
2018-01-05T02:20:10.865Z,0.00
2018-01-05T02:21:10.745Z,0.00
2018-01-05T02:22:10.607Z,0.00
2018-01-05T02:23:10.479Z,0.00
2018-01-05T02:24:10.350Z,0.00
2018-01-05T02:25:10.219Z,0.00
2018-01-05T02:26:10.091Z,0.00
2018-01-05T02:27:09.965Z,0.00
2018-01-05T02:28:09.830Z,0.00
2018-01-05T02:29:09.701Z,0.00
2018-01-05T02:30:09.580Z,0.00
2018-01-05T02:31:09.445Z,0.00
2018-01-05T02:32:09.314Z,0.00
2018-01-05T02:33:09.184Z,0.00
2018-01-05T02:34:09.058Z,0.00
2018-01-05T02:35:08.930Z,0.00
2018-01-05T02:36:08.797Z,0.00
2018-01-05T02:37:08.671Z,0.00
2018-01-05T02:38:08.540Z,0.00
2018-01-05T02:39:08.409Z,0.00
2018-01-05T02:40:08.280Z,0.00
2018-01-05T02:41:08.150Z,0.00
2018-01-05T02:42:08.022Z,0.00
2018-01-05T02:43:07.892Z,0.00
2018-01-05T02:44:07.764Z,0.00
2018-01-05T02:45:07.632Z,0.00
2018-01-05T02:46:07.506Z,0.00
2018-01-05T02:47:07.375Z,0.00
2018-01-05T02:48:07.247Z,0.00
2018-01-05T02:49:07.116Z,0.00
2018-01-05T02:50:06.990Z,0.00
2018-01-05T02:51:06.863Z,0.00
2018-01-05T02:52:06.732Z,0.00
2018-01-05T02:53:06.600Z,0.00
2018-01-05T02:54:06.472Z,0.00
2018-01-05T02:55:06.341Z,0.00
2018-01-05T02:56:06.217Z,0.00
2018-01-05T02:57:06.085Z,0.00
2018-01-05T02:58:05.953Z,0.00
2018-01-05T02:59:05.832Z,0.00
2018-01-05T03:00:05.702Z,0.00
2018-01-05T03:01:05.569Z,0.00
2018-01-05T03:02:05.440Z,0.00
2018-01-05T03:03:05.311Z,0.00
2018-01-05T03:04:05.179Z,0.00
2018-01-05T03:05:05.051Z,0.00
2018-01-05T03:06:04.921Z,0.00
2018-01-05T03:07:04.797Z,0.00
2018-01-05T03:08:04.663Z,0.00
2018-01-05T03:09:04.534Z,0.00
2018-01-05T03:10:04.407Z,0.00
2018-01-05T03:11:04.277Z,0.00
2018-01-05T03:12:04.146Z,0.00
2018-01-05T03:13:04.018Z,0.00
2018-01-05T03:14:03.887Z,0.00
2018-01-05T03:15:03.757Z,0.00
2018-01-05T03:16:03.630Z,0.00
2018-01-05T03:17:03.498Z,0.00
2018-01-05T03:18:03.369Z,0.00
2018-01-05T03:19:03.241Z,0.00
2018-01-05T03:20:03.110Z,0.00
2018-01-05T03:21:02.982Z,0.00
2018-01-05T03:22:02.850Z,0.00
2018-01-05T03:23:02.723Z,0.00
2018-01-05T03:24:02.592Z,0.00
2018-01-05T03:25:02.462Z,0.00
2018-01-05T03:26:02.333Z,0.00
2018-01-05T03:27:02.203Z,0.00
2018-01-05T03:28:02.074Z,0.00
2018-01-05T03:29:01.945Z,0.00
2018-01-05T03:30:01.817Z,0.00
2018-01-05T03:31:01.697Z,0.00
2018-01-05T03:32:01.556Z,0.00
2018-01-05T03:33:01.427Z,0.00
2018-01-05T03:34:01.295Z,0.00
2018-01-05T03:35:01.168Z,0.00
2018-01-05T03:36:01.038Z,0.00
2018-01-05T03:37:00.906Z,0.00
2018-01-05T03:38:00.779Z,0.00
2018-01-05T03:39:00.648Z,0.00
2018-01-05T03:40:00.520Z,0.00
2018-01-05T03:41:00.391Z,0.00
2018-01-05T03:42:00.259Z,0.00
2018-01-05T03:43:00.133Z,0.00
2018-01-05T03:44:00.010Z,0.00
2018-01-05T03:44:59.886Z,0.00
2018-01-05T03:45:59.739Z,0.00
2018-01-05T03:46:59.614Z,0.00
2018-01-05T03:47:59.482Z,0.00
2018-01-05T03:48:59.354Z,0.00
2018-01-05T03:49:59.221Z,0.00
2018-01-05T03:50:59.096Z,0.00
2018-01-05T03:51:58.962Z,0.00
2018-01-05T03:52:58.833Z,0.00
2018-01-05T03:53:58.704Z,0.00
2018-01-05T03:54:58.576Z,0.00
2018-01-05T03:55:58.445Z,0.00
2018-01-05T03:56:58.314Z,0.00
2018-01-05T03:57:58.186Z,0.00
2018-01-05T03:58:58.058Z,0.00
2018-01-05T03:59:57.929Z,0.00
2018-01-05T04:00:57.798Z,0.00
2018-01-05T04:01:57.669Z,0.00
2018-01-05T04:02:57.538Z,0.00
2018-01-05T04:03:57.407Z,0.00
2018-01-05T04:04:57.281Z,0.00
2018-01-05T04:05:57.150Z,0.00
2018-01-05T04:06:57.019Z,0.00
2018-01-05T04:07:56.890Z,0.00
2018-01-05T04:08:56.763Z,0.00
2018-01-05T04:09:56.630Z,0.00
2018-01-05T04:10:56.502Z,0.00
2018-01-05T04:11:56.371Z,0.00
2018-01-05T04:12:56.241Z,0.00
2018-01-05T04:13:56.115Z,0.00
2018-01-05T04:14:55.983Z,0.00
2018-01-05T04:15:55.850Z,0.00
2018-01-05T04:16:55.720Z,0.00
2018-01-05T04:17:55.593Z,0.00
2018-01-05T04:18:55.462Z,0.00
2018-01-05T04:19:55.331Z,0.00
2018-01-05T04:20:55.202Z,0.00
2018-01-05T04:21:55.073Z,0.00
2018-01-05T04:22:54.946Z,0.00
2018-01-05T04:23:54.815Z,0.00
2018-01-05T04:24:54.686Z,0.00
2018-01-05T04:25:54.554Z,0.00
2018-01-05T04:26:54.426Z,0.00
2018-01-05T04:27:54.294Z,0.00
2018-01-05T04:28:54.165Z,0.00
2018-01-05T04:29:54.039Z,0.00
2018-01-05T04:30:53.904Z,0.00
2018-01-05T04:31:53.776Z,0.00
2018-01-05T04:32:53.646Z,0.00
2018-01-05T04:33:53.517Z,0.00
2018-01-05T04:34:53.391Z,0.00
2018-01-05T04:35:53.257Z,0.00
2018-01-05T04:36:53.130Z,0.00
2018-01-05T04:37:52.998Z,0.00
2018-01-05T04:38:52.869Z,0.00
2018-01-05T04:39:52.741Z,0.00
2018-01-05T04:40:52.609Z,0.00
2018-01-05T04:41:52.481Z,0.00
2018-01-05T04:42:52.353Z,0.00
2018-01-05T04:43:52.219Z,0.00
2018-01-05T04:44:52.094Z,0.00
2018-01-05T04:45:51.965Z,0.00
2018-01-05T04:46:51.833Z,0.00
2018-01-05T04:47:51.705Z,0.00
2018-01-05T04:48:51.575Z,0.00
2018-01-05T04:49:51.446Z,0.00
2018-01-05T04:50:51.316Z,0.00
2018-01-05T04:51:51.186Z,0.00
2018-01-05T04:52:51.057Z,0.00
2018-01-05T04:53:50.928Z,0.00
2018-01-05T04:54:50.799Z,0.00
2018-01-05T04:55:50.668Z,0.00
2018-01-05T04:56:50.538Z,0.00
2018-01-05T04:57:50.410Z,0.00
2018-01-05T04:58:50.281Z,0.00
2018-01-05T04:59:50.151Z,0.00
2018-01-05T05:00:50.021Z,0.00
2018-01-05T05:01:49.892Z,0.00
2018-01-05T05:02:49.765Z,0.00
2018-01-05T05:03:49.631Z,0.00
2018-01-05T05:04:49.502Z,0.00
2018-01-05T05:05:49.373Z,0.00
2018-01-05T05:06:49.243Z,0.00
2018-01-05T05:07:49.113Z,0.00
2018-01-05T05:08:48.981Z,0.00
2018-01-05T05:09:48.853Z,0.00
2018-01-05T05:10:48.723Z,0.00
2018-01-05T05:11:48.591Z,0.00
2018-01-05T05:12:48.465Z,0.00
2018-01-05T05:13:48.334Z,0.00
2018-01-05T05:14:48.205Z,0.00
2018-01-05T05:15:48.073Z,0.00
2018-01-05T05:16:47.945Z,0.00
2018-01-05T05:17:47.815Z,0.00
2018-01-05T05:18:47.688Z,0.00
2018-01-05T05:19:47.555Z,0.00
2018-01-05T05:20:47.424Z,0.00
2018-01-05T05:21:47.295Z,0.00
2018-01-05T05:22:47.167Z,0.00
2018-01-05T05:23:47.036Z,0.00
2018-01-05T05:24:46.908Z,0.00
2018-01-05T05:25:46.776Z,0.00
2018-01-05T05:26:46.650Z,0.00
2018-01-05T05:27:46.520Z,0.00
2018-01-05T05:28:46.395Z,0.00
2018-01-05T05:29:46.261Z,0.00
2018-01-05T05:30:46.131Z,0.00
2018-01-05T05:31:45.996Z,0.00
2018-01-05T05:32:45.869Z,0.00
2018-01-05T05:33:45.740Z,0.00
2018-01-05T05:34:45.610Z,0.00
2018-01-05T05:35:45.480Z,0.00
2018-01-05T05:36:45.349Z,0.00
2018-01-05T05:37:45.220Z,0.00
2018-01-05T05:38:45.093Z,0.00
2018-01-05T05:39:44.960Z,0.00
2018-01-05T05:40:44.831Z,0.00
2018-01-05T05:41:44.701Z,0.00
2018-01-05T05:42:44.572Z,0.00
2018-01-05T05:43:44.472Z,0.00
2018-01-05T05:44:44.314Z,0.00
2018-01-05T05:45:44.182Z,0.00
2018-01-05T05:46:44.057Z,0.00
2018-01-05T05:47:43.923Z,0.00
2018-01-05T05:48:43.793Z,0.00
2018-01-05T05:49:43.665Z,0.00
2018-01-05T05:50:43.539Z,0.00
2018-01-05T05:51:43.404Z,0.00
2018-01-05T05:52:43.272Z,0.00
2018-01-05T05:53:43.143Z,0.00
2018-01-05T05:54:43.014Z,0.00
2018-01-05T05:55:42.887Z,0.00
2018-01-05T05:56:42.753Z,0.00
2018-01-05T05:57:42.625Z,0.00
2018-01-05T05:58:42.493Z,0.00
2018-01-05T05:59:42.364Z,0.00
2018-01-05T06:00:42.234Z,0.00
2018-01-05T06:01:42.104Z,0.00
2018-01-05T06:02:41.976Z,0.00
2018-01-05T06:03:41.845Z,0.00
2018-01-05T06:04:41.717Z,0.00
2018-01-05T06:05:41.584Z,0.00
2018-01-05T06:06:41.455Z,0.00
2018-01-05T06:07:41.326Z,0.00
2018-01-05T06:08:41.197Z,0.00
2018-01-05T06:09:41.066Z,0.00
2018-01-05T06:10:40.936Z,0.00
2018-01-05T06:11:40.806Z,0.00
2018-01-05T06:12:40.675Z,0.00
2018-01-05T06:13:40.546Z,0.00
2018-01-05T06:14:40.418Z,0.00
2018-01-05T06:15:40.287Z,0.00
2018-01-05T06:16:40.156Z,0.00
2018-01-05T06:17:40.028Z,0.00
2018-01-05T06:18:39.897Z,0.00
2018-01-05T06:19:39.768Z,0.00
2018-01-05T06:20:39.637Z,0.00
2018-01-05T06:21:39.507Z,0.00
2018-01-05T06:22:39.379Z,0.00
2018-01-05T06:23:39.250Z,0.00
2018-01-05T06:24:39.119Z,0.00
2018-01-05T06:25:38.988Z,0.00
2018-01-05T06:26:38.858Z,0.00
2018-01-05T06:27:38.728Z,0.00
2018-01-05T06:28:38.599Z,0.00
2018-01-05T06:29:38.468Z,0.00
2018-01-05T06:30:38.339Z,0.00
2018-01-05T06:31:38.210Z,0.00
2018-01-05T06:32:38.080Z,0.00
2018-01-05T06:33:37.948Z,0.00
2018-01-05T06:34:37.856Z,0.00
2018-01-05T06:35:37.726Z,0.00
2018-01-05T06:36:37.561Z,0.00
2018-01-05T06:37:37.488Z,4.00
2018-01-05T06:38:37.301Z,4.00
2018-01-05T06:39:37.170Z,0.00
2018-01-05T06:40:37.040Z,4.00
2018-01-05T06:41:36.911Z,8.00
2018-01-05T06:42:36.782Z,4.00
2018-01-05T06:43:36.655Z,8.00
2018-01-05T06:44:36.518Z,4.00
2018-01-05T06:45:36.391Z,8.00
2018-01-05T06:46:36.261Z,8.00
2018-01-05T06:47:36.130Z,8.00
2018-01-05T06:48:36.002Z,12.00
2018-01-05T06:49:35.871Z,16.00
2018-01-05T06:50:35.740Z,20.00
2018-01-05T06:51:35.609Z,20.00
2018-01-05T06:52:35.481Z,20.00
2018-01-05T06:53:35.351Z,24.00
2018-01-05T06:54:35.221Z,28.00
2018-01-05T06:55:35.097Z,36.00
2018-01-05T06:56:34.961Z,40.00
2018-01-05T06:57:34.830Z,44.00
2018-01-05T06:58:34.701Z,52.00
2018-01-05T06:59:34.570Z,56.00
2018-01-05T07:00:34.438Z,64.00
2018-01-05T07:01:34.313Z,72.00
2018-01-05T07:02:34.217Z,80.00
2018-01-05T07:03:34.050Z,88.00
2018-01-05T07:04:33.917Z,100.00
2018-01-05T07:05:33.791Z,108.00
2018-01-05T07:06:33.731Z,120.00
2018-01-05T07:07:33.527Z,132.00
2018-01-05T07:08:33.397Z,144.00
2018-01-05T07:09:33.277Z,156.00
2018-01-05T07:10:33.136Z,168.00
2018-01-05T07:11:33.008Z,176.00
2018-01-05T07:12:32.876Z,188.00
2018-01-05T07:13:32.747Z,200.00
2018-01-05T07:14:32.619Z,216.00
2018-01-05T07:15:32.525Z,228.00
2018-01-05T07:16:32.355Z,240.00
2018-01-05T07:17:32.228Z,256.00
2018-01-05T07:18:32.094Z,268.00
2018-01-05T07:19:31.964Z,280.00
2018-01-05T07:20:31.833Z,292.00
2018-01-05T07:21:31.709Z,304.00
2018-01-05T07:22:31.662Z,316.00
2018-01-05T07:23:31.445Z,328.00
2018-01-05T07:24:31.370Z,340.00
2018-01-05T07:25:31.184Z,356.00
2018-01-05T07:26:31.054Z,368.00
2018-01-05T07:27:30.922Z,384.00
2018-01-05T07:28:30.790Z,392.00
2018-01-05T07:29:30.665Z,404.00
2018-01-05T07:30:30.533Z,416.00
2018-01-05T07:31:30.400Z,428.00
2018-01-05T07:32:30.268Z,436.00
2018-01-05T07:33:30.162Z,452.00
2018-01-05T07:34:30.012Z,460.00
2018-01-05T07:35:29.879Z,472.00
2018-01-05T07:36:29.751Z,372.00
2018-01-05T07:37:29.626Z,380.00
2018-01-05T07:38:29.493Z,384.00
2018-01-05T07:39:29.359Z,396.00
2018-01-05T07:40:29.231Z,404.00
2018-01-05T07:41:29.105Z,412.00
2018-01-05T07:42:29.024Z,416.00
2018-01-05T07:43:28.838Z,428.00
2018-01-05T07:44:28.710Z,432.00
2018-01-05T07:45:28.579Z,440.00
2018-01-05T07:46:28.449Z,448.00
2018-01-05T07:47:28.317Z,452.00
2018-01-05T07:48:28.187Z,460.00
2018-01-05T07:49:28.058Z,464.00
2018-01-05T07:50:27.932Z,472.00
2018-01-05T07:51:27.800Z,476.00
2018-01-05T07:52:27.670Z,484.00
2018-01-05T07:53:27.540Z,492.00
2018-01-05T07:54:27.412Z,500.00
2018-01-05T07:55:27.279Z,504.00
2018-01-05T07:56:27.148Z,508.00
2018-01-05T07:57:27.026Z,516.00
2018-01-05T07:58:26.893Z,520.00
2018-01-05T07:59:26.759Z,528.00
2018-01-05T08:00:26.630Z,532.00
2018-01-05T08:01:26.498Z,540.00
2018-01-05T08:02:26.368Z,544.00
2018-01-05T08:03:26.251Z,548.00
2018-01-05T08:04:26.112Z,552.00
2018-01-05T08:05:25.979Z,560.00
2018-01-05T08:06:25.877Z,564.00
2018-01-05T08:07:25.717Z,572.00
2018-01-05T08:08:25.589Z,576.00
2018-01-05T08:09:25.460Z,584.00
2018-01-05T08:10:25.332Z,600.00
2018-01-05T08:11:25.257Z,600.00
2018-01-05T08:12:25.075Z,596.00
2018-01-05T08:13:24.938Z,600.00
2018-01-05T08:14:24.808Z,608.00
2018-01-05T08:15:24.686Z,612.00
2018-01-05T08:16:24.547Z,616.00
2018-01-05T08:17:24.468Z,620.00
2018-01-05T08:18:24.305Z,624.00
2018-01-05T08:19:24.161Z,628.00
2018-01-05T08:20:24.027Z,632.00
2018-01-05T08:21:23.899Z,636.00
2018-01-05T08:22:23.801Z,640.00
2018-01-05T08:23:23.639Z,648.00
2018-01-05T08:24:23.509Z,652.00
2018-01-05T08:25:23.398Z,656.00
2018-01-05T08:26:23.249Z,660.00
2018-01-05T08:27:23.133Z,668.00
2018-01-05T08:28:22.999Z,672.00
2018-01-05T08:29:22.862Z,676.00
2018-01-05T08:30:22.733Z,680.00
2018-01-05T08:31:22.647Z,684.00
2018-01-05T08:32:22.473Z,688.00
2018-01-05T08:33:22.340Z,688.00
2018-01-05T08:34:22.259Z,692.00
2018-01-05T08:35:22.094Z,700.00
2018-01-05T08:36:21.950Z,704.00
2018-01-05T08:37:21.823Z,712.00
2018-01-05T08:38:21.692Z,716.00
2018-01-05T08:39:21.561Z,720.00
2018-01-05T08:40:21.484Z,724.00
2018-01-05T08:41:21.340Z,728.00
2018-01-05T08:42:21.173Z,732.00
2018-01-05T08:43:21.047Z,732.00
2018-01-05T08:44:20.931Z,736.00
2018-01-05T08:45:20.785Z,744.00
2018-01-05T08:46:20.683Z,760.00
2018-01-05T08:47:20.524Z,772.00
2018-01-05T08:48:20.395Z,792.00
2018-01-05T08:49:20.263Z,800.00
2018-01-05T08:50:20.185Z,796.00
2018-01-05T08:51:20.004Z,788.00
2018-01-05T08:52:19.876Z,784.00
2018-01-05T08:53:19.757Z,792.00
2018-01-05T08:54:19.616Z,820.00
2018-01-05T08:55:19.485Z,824.00
2018-01-05T08:56:19.357Z,832.00
2018-01-05T08:57:19.228Z,840.00
2018-01-05T08:58:19.111Z,836.00
2018-01-05T08:59:18.978Z,828.00
2018-01-05T09:00:18.836Z,832.00
2018-01-05T09:01:18.707Z,836.00
2018-01-05T09:02:18.587Z,856.00
2018-01-05T09:03:18.446Z,860.00
2018-01-05T09:04:18.317Z,872.00
2018-01-05T09:05:18.194Z,912.00
2018-01-05T09:06:18.058Z,964.00
2018-01-05T09:07:17.929Z,1040.00
2018-01-05T09:08:17.799Z,1120.00
2018-01-05T09:09:17.703Z,1128.00
2018-01-05T09:10:17.542Z,1052.00
2018-01-05T09:11:17.411Z,1028.00
2018-01-05T09:12:17.280Z,1028.00
2018-01-05T09:13:17.154Z,1060.00
2018-01-05T09:14:17.026Z,1132.00
2018-01-05T09:15:16.894Z,1200.00
2018-01-05T09:16:16.763Z,1296.00
2018-01-05T09:17:16.631Z,1320.00
2018-01-05T09:18:16.504Z,1312.00
2018-01-05T09:19:16.391Z,1456.00
2018-01-05T09:20:16.242Z,1524.00
2018-01-05T09:21:16.114Z,1488.00
2018-01-05T09:22:15.986Z,1636.00
2018-01-05T09:23:15.857Z,1924.00
2018-01-05T09:24:15.725Z,2088.00
2018-01-05T09:25:15.717Z,2132.00
2018-01-05T09:26:15.470Z,2288.00
2018-01-05T09:27:15.343Z,2452.00
2018-01-05T09:28:15.209Z,2452.00
2018-01-05T09:29:15.082Z,2396.00
2018-01-05T09:30:14.953Z,2364.00
2018-01-05T09:31:14.826Z,2508.00
2018-01-05T09:32:14.693Z,2796.00
2018-01-05T09:33:14.566Z,2864.00
2018-01-05T09:34:14.437Z,2760.00
2018-01-05T09:35:14.308Z,2708.00
2018-01-05T09:36:14.184Z,2444.00
2018-01-05T09:37:14.051Z,2636.00
2018-01-05T09:38:13.922Z,2884.00
2018-01-05T09:39:13.792Z,2812.00
2018-01-05T09:40:13.667Z,2940.00
2018-01-05T09:41:13.538Z,3156.00
2018-01-05T09:42:13.409Z,3408.00
2018-01-05T09:43:13.281Z,3640.00
2018-01-05T09:44:13.153Z,3660.00
2018-01-05T09:45:13.027Z,3620.00
2018-01-05T09:46:12.897Z,3864.00
2018-01-05T09:47:12.772Z,4136.00
2018-01-05T09:48:12.637Z,4244.00
2018-01-05T09:49:12.512Z,4532.00
2018-01-05T09:50:12.384Z,4744.00
2018-01-05T09:51:12.254Z,4548.00
2018-01-05T09:52:12.128Z,5144.00
2018-01-05T09:53:11.999Z,5256.00
2018-01-05T09:54:11.874Z,5292.00
2018-01-05T09:55:11.744Z,4668.00
2018-01-05T09:56:11.618Z,4524.00
2018-01-05T09:57:11.488Z,4804.00
2018-01-05T09:58:11.365Z,6024.00
2018-01-05T09:59:11.239Z,4320.00
2018-01-05T10:00:11.114Z,5092.00
2018-01-05T10:01:10.982Z,4528.00
2018-01-05T10:02:10.857Z,4940.00
2018-01-05T10:03:10.727Z,4416.00
2018-01-05T10:04:10.602Z,5416.00
2018-01-05T10:05:10.474Z,5664.00
2018-01-05T10:06:10.355Z,5332.00
2018-01-05T10:07:10.229Z,4636.00
2018-01-05T10:08:10.095Z,4636.00
2018-01-05T10:09:09.985Z,5040.00
2018-01-05T10:10:09.840Z,4908.00
2018-01-05T10:11:09.714Z,4240.00
2018-01-05T10:12:09.604Z,4908.00
2018-01-05T10:13:09.463Z,5500.00
2018-01-05T10:14:09.342Z,5788.00
2018-01-05T10:15:09.215Z,5660.00
2018-01-05T10:16:09.095Z,5816.00
2018-01-05T10:17:08.961Z,5852.00
2018-01-05T10:18:08.837Z,5824.00
2018-01-05T10:19:08.714Z,5600.00
2018-01-05T10:20:08.583Z,5412.00
2018-01-05T10:21:08.459Z,6204.00
2018-01-05T10:22:08.333Z,6080.00
2018-01-05T10:23:08.209Z,5540.00
2018-01-05T10:24:08.085Z,5132.00
2018-01-05T10:25:07.961Z,5800.00
2018-01-05T10:26:07.835Z,5996.00
2018-01-05T10:27:07.709Z,6148.00
2018-01-05T10:28:07.586Z,5976.00
2018-01-05T10:29:07.462Z,5804.00
2018-01-05T10:30:07.342Z,4524.00
2018-01-05T10:31:07.216Z,4408.00
2018-01-05T10:32:07.093Z,5652.00
2018-01-05T10:33:06.975Z,5028.00
2018-01-05T10:34:06.847Z,5476.00
2018-01-05T10:35:06.724Z,6020.00
2018-01-05T10:36:06.597Z,5572.00
2018-01-05T10:37:06.475Z,6500.00
2018-01-05T10:38:06.352Z,6660.00
2018-01-05T10:39:06.229Z,6816.00
2018-01-05T10:40:06.104Z,6152.00
2018-01-05T10:41:05.983Z,5920.00
2018-01-05T10:42:05.860Z,5812.00
2018-01-05T10:43:05.735Z,5328.00
2018-01-05T10:44:05.614Z,5068.00
2018-01-05T10:45:05.492Z,4920.00
2018-01-05T10:46:05.369Z,4864.00
2018-01-05T10:47:05.244Z,4828.00
2018-01-05T10:48:05.132Z,4700.00
2018-01-05T10:49:05.001Z,4376.00
2018-01-05T10:50:04.879Z,4636.00
2018-01-05T10:51:04.755Z,4524.00
2018-01-05T10:52:04.635Z,4600.00
2018-01-05T10:53:04.512Z,4580.00
2018-01-05T10:54:04.390Z,4496.00
2018-01-05T10:55:04.272Z,4524.00
2018-01-05T10:56:04.145Z,4264.00
2018-01-05T10:57:04.024Z,4372.00
2018-01-05T10:58:03.902Z,4400.00
2018-01-05T10:59:03.780Z,4224.00
2018-01-05T11:00:03.659Z,4176.00
2018-01-05T11:01:03.538Z,4076.00
2018-01-05T11:02:03.415Z,4188.00
2018-01-05T11:03:03.296Z,4096.00
2018-01-05T11:04:03.171Z,4148.00
2018-01-05T11:05:03.052Z,4160.00
2018-01-05T11:06:02.930Z,4204.00
2018-01-05T11:07:02.809Z,4140.00
2018-01-05T11:08:02.684Z,3976.00
2018-01-05T11:09:02.565Z,4132.00
2018-01-05T11:10:02.445Z,4372.00
2018-01-05T11:11:02.322Z,4392.00
2018-01-05T11:12:02.200Z,4352.00
2018-01-05T11:13:02.080Z,4432.00
2018-01-05T11:14:01.958Z,4448.00
2018-01-05T11:15:01.837Z,4316.00
2018-01-05T11:16:01.716Z,4372.00
2018-01-05T11:17:01.595Z,4472.00
2018-01-05T11:18:01.473Z,4428.00
2018-01-05T11:19:01.349Z,4400.00
2018-01-05T11:20:01.232Z,4408.00
2018-01-05T11:21:01.109Z,4416.00
2018-01-05T11:22:00.985Z,4420.00
2018-01-05T11:23:00.863Z,4364.00
2018-01-05T11:24:00.743Z,4380.00
2018-01-05T11:25:00.620Z,4344.00
2018-01-05T11:26:00.499Z,4444.00
2018-01-05T11:27:00.378Z,4460.00
2018-01-05T11:28:00.257Z,4452.00
2018-01-05T11:29:00.136Z,4452.00
2018-01-05T11:30:00.026Z,4324.00
2018-01-05T11:30:59.889Z,4292.00
2018-01-05T11:31:59.770Z,4236.00
2018-01-05T11:32:59.648Z,4220.00
2018-01-05T11:33:59.524Z,4232.00
2018-01-05T11:34:59.403Z,4256.00
2018-01-05T11:35:59.283Z,4260.00
2018-01-05T11:36:59.162Z,4204.00
2018-01-05T11:37:59.043Z,4252.00
2018-01-05T11:38:58.918Z,4312.00
2018-01-05T11:39:58.796Z,4372.00
2018-01-05T11:40:58.715Z,4348.00
2018-01-05T11:41:58.555Z,4364.00
2018-01-05T11:42:58.433Z,4244.00
2018-01-05T11:43:58.308Z,4180.00
2018-01-05T11:44:58.189Z,4292.00
2018-01-05T11:45:58.069Z,4432.00
2018-01-05T11:46:57.947Z,4044.00
2018-01-05T11:47:57.825Z,3112.00
2018-01-05T11:48:57.702Z,2388.00
2018-01-05T11:49:57.579Z,2632.00
2018-01-05T11:50:57.456Z,3200.00
2018-01-05T11:51:57.336Z,3924.00
2018-01-05T11:52:57.215Z,4060.00
2018-01-05T11:53:57.093Z,3928.00
2018-01-05T11:54:56.973Z,4168.00
2018-01-05T11:55:56.927Z,3828.00
2018-01-05T11:56:56.731Z,3892.00
2018-01-05T11:57:56.656Z,3556.00
2018-01-05T11:58:56.482Z,3404.00
2018-01-05T11:59:56.357Z,3348.00
2018-01-05T12:00:56.242Z,3180.00
2018-01-05T12:01:56.115Z,3520.00
2018-01-05T12:02:56.026Z,3528.00
2018-01-05T12:03:55.872Z,3532.00
2018-01-05T12:04:55.747Z,3352.00
2018-01-05T12:05:55.623Z,3236.00
2018-01-05T12:06:55.500Z,3348.00
2018-01-05T12:07:55.379Z,3608.00
2018-01-05T12:08:55.258Z,3720.00
2018-01-05T12:09:55.160Z,3484.00
2018-01-05T12:10:55.009Z,3348.00
2018-01-05T12:11:54.888Z,3384.00
2018-01-05T12:12:54.771Z,3896.00
2018-01-05T12:13:54.646Z,3836.00
2018-01-05T12:14:54.518Z,3800.00
2018-01-05T12:15:54.397Z,2652.00
2018-01-05T12:16:54.274Z,3184.00
2018-01-05T12:17:54.155Z,2804.00
2018-01-05T12:18:54.028Z,3644.00
2018-01-05T12:19:55.785Z,3156.00
2018-01-05T12:20:53.783Z,2888.00
2018-01-05T12:21:53.658Z,2624.00
2018-01-05T12:22:53.533Z,3484.00
2018-01-05T12:23:53.410Z,3356.00
2018-01-05T12:24:53.288Z,4120.00
2018-01-05T12:25:53.162Z,3728.00
2018-01-05T12:26:53.039Z,3364.00
2018-01-05T12:27:52.916Z,2928.00
2018-01-05T12:28:52.793Z,2776.00
2018-01-05T12:29:52.672Z,2420.00
2018-01-05T12:30:52.545Z,2764.00
2018-01-05T12:31:52.420Z,2596.00
2018-01-05T12:32:52.305Z,2400.00
2018-01-05T12:33:52.173Z,2144.00
2018-01-05T12:34:52.052Z,2108.00
2018-01-05T12:35:51.926Z,1944.00
2018-01-05T12:36:51.801Z,1728.00
2018-01-05T12:37:51.680Z,1716.00
2018-01-05T12:38:51.552Z,1760.00
2018-01-05T12:39:51.428Z,1776.00
2018-01-05T12:40:51.304Z,1812.00
2018-01-05T12:41:51.182Z,1704.00
2018-01-05T12:42:51.053Z,1628.00
2018-01-05T12:43:50.927Z,1824.00
2018-01-05T12:44:50.804Z,1732.00
2018-01-05T12:45:50.678Z,1776.00